createdAt,value
2018-01-27T00:02:03.935Z,11.70
2018-01-27T00:07:04.931Z,13.43
2018-01-27T00:12:05.920Z,13.87
2018-01-27T00:17:06.915Z,11.70
2018-01-27T00:22:07.890Z,16.00
2018-01-27T00:27:08.882Z,16.37
2018-01-27T00:32:09.902Z,16.07
2018-01-27T00:37:10.886Z,15.23
2018-01-27T00:42:11.866Z,14.70
2018-01-27T00:47:12.852Z,16.00
2018-01-27T00:52:13.848Z,19.40
2018-01-27T00:57:14.846Z,23.00
2018-01-27T01:02:15.832Z,13.90
2018-01-27T01:07:16.830Z,13.87
2018-01-27T01:12:17.830Z,14.37
2018-01-27T01:17:19.555Z,16.57
2018-01-27T01:22:20.538Z,16.03
2018-01-27T01:27:21.538Z,16.03
2018-01-27T01:32:22.518Z,16.57
2018-01-27T01:37:23.499Z,18.13
2018-01-27T01:42:30.683Z,17.03
2018-01-27T01:47:32.395Z,18.40
2018-01-27T01:52:34.123Z,19.00
2018-01-27T01:57:35.106Z,18.53
2018-01-27T02:02:36.132Z,21.60
2018-01-27T02:07:37.147Z,18.87
2018-01-27T02:12:38.866Z,17.80
2018-01-27T02:17:39.839Z,18.60
2018-01-27T02:22:40.833Z,17.70
2018-01-27T02:27:41.843Z,21.90
2018-01-27T02:32:42.846Z,17.63
2018-01-27T02:37:43.850Z,20.90
2018-01-27T02:42:45.586Z,19.00
2018-01-27T02:47:46.573Z,19.37
2018-01-27T02:52:47.563Z,16.13
2018-01-27T02:57:48.550Z,16.83
2018-01-27T03:02:49.547Z,17.17
2018-01-27T03:07:50.538Z,17.33
2018-01-27T03:12:51.519Z,15.77
2018-01-27T03:17:52.505Z,15.30
2018-01-27T03:22:53.488Z,17.83
2018-01-27T03:27:54.488Z,14.47
2018-01-27T03:32:56.227Z,14.30
2018-01-27T03:37:57.232Z,14.23
2018-01-27T03:42:58.224Z,15.40
2018-01-27T03:47:59.210Z,12.73
2018-01-27T03:53:00.191Z,13.77
2018-01-27T03:58:01.178Z,12.00
2018-01-27T04:03:02.163Z,11.20
2018-01-27T04:08:03.154Z,11.60
2018-01-27T04:13:04.867Z,10.50
2018-01-27T04:18:06.598Z,11.00
2018-01-27T04:23:07.603Z,15.37
2018-01-27T04:28:08.599Z,11.40
2018-01-27T04:33:09.611Z,11.47
2018-01-27T04:38:10.630Z,11.23
2018-01-27T04:43:11.638Z,10.70
2018-01-27T04:48:12.614Z,12.67
2018-01-27T04:53:13.635Z,14.00
2018-01-27T04:58:15.355Z,12.40
2018-01-27T05:03:16.349Z,11.67
2018-01-27T05:08:17.318Z,12.13
2018-01-27T05:13:18.306Z,12.30
2018-01-27T05:18:19.303Z,14.43
2018-01-27T05:23:20.289Z,13.60
2018-01-27T05:28:21.279Z,11.70
2018-01-27T05:33:22.250Z,14.77
2018-01-27T05:38:23.230Z,14.30
2018-01-27T05:43:24.211Z,13.33
2018-01-27T05:48:25.191Z,13.03
2018-01-27T05:53:26.178Z,10.97
2018-01-27T05:58:27.162Z,12.10
2018-01-27T06:03:28.146Z,10.30
2018-01-27T06:08:29.199Z,11.40
2018-01-27T06:13:31.015Z,10.80
2018-01-27T06:18:32.014Z,10.07
2018-01-27T06:23:33.003Z,10.57
2018-01-27T06:28:33.986Z,12.73
2018-01-27T06:33:34.967Z,12.90
2018-01-27T06:38:35.978Z,11.30
2018-01-27T06:43:36.962Z,13.50
2018-01-27T06:48:37.938Z,15.00
2018-01-27T06:53:38.918Z,14.00
2018-01-27T06:58:39.907Z,14.07
2018-01-27T07:03:40.882Z,19.77
2018-01-27T07:08:41.858Z,15.97
2018-01-27T07:13:42.858Z,16.83
2018-01-27T07:18:43.838Z,16.70
2018-01-27T07:23:44.815Z,15.83
2018-01-27T07:28:45.798Z,13.63
2018-01-27T07:33:46.781Z,12.47
2018-01-27T07:38:47.771Z,12.90
2018-01-27T07:43:48.755Z,13.47
2018-01-27T07:48:49.763Z,15.10
2018-01-27T07:53:51.704Z,15.37
2018-01-27T07:58:52.725Z,15.90
2018-01-27T08:03:53.711Z,16.50
2018-01-27T08:08:54.687Z,15.70
2018-01-27T08:13:55.683Z,16.10
2018-01-27T08:18:57.411Z,16.80
2018-01-27T08:23:58.406Z,15.10
2018-01-27T08:28:59.451Z,15.47
2018-01-27T08:34:01.179Z,16.80
2018-01-27T08:39:02.161Z,14.23
2018-01-27T08:44:03.186Z,12.30
2018-01-27T08:49:04.946Z,12.40
2018-01-27T08:54:05.950Z,11.57
2018-01-27T08:59:07.179Z,11.53
2018-01-27T09:04:08.159Z,10.50
2018-01-27T09:09:09.134Z,11.53
2018-01-27T09:14:10.110Z,12.20
2018-01-27T09:19:11.091Z,14.00
2018-01-27T09:24:12.066Z,13.63
2018-01-27T09:29:13.063Z,14.73
2018-01-27T09:34:14.048Z,13.23
2018-01-27T09:39:15.023Z,12.70
2018-01-27T09:44:16.013Z,12.17
2018-01-27T09:49:16.997Z,12.73
2018-01-27T09:54:17.989Z,12.97
2018-01-27T09:59:19.027Z,14.10
2018-01-27T10:04:20.019Z,16.70
2018-01-27T10:09:21.002Z,16.10
2018-01-27T10:14:22.021Z,17.07
2018-01-27T10:19:23.742Z,15.13
2018-01-27T10:24:24.762Z,11.80
2018-01-27T10:29:25.825Z,16.03
2018-01-27T10:34:27.511Z,14.27
2018-01-27T10:39:28.498Z,15.37
2018-01-27T10:44:29.486Z,15.53
2018-01-27T10:49:30.457Z,14.13
2018-01-27T10:54:31.431Z,30.37
2018-01-27T10:59:32.410Z,15.80
2018-01-27T11:04:33.405Z,17.27
2018-01-27T11:09:34.378Z,18.80
2018-01-27T11:14:35.363Z,16.20
2018-01-27T11:19:36.341Z,14.53
2018-01-27T11:24:37.320Z,19.77
2018-01-27T11:29:38.372Z,16.17
2018-01-27T11:34:39.339Z,14.50
2018-01-27T11:39:40.326Z,13.27
2018-01-27T11:44:41.294Z,12.57
2018-01-27T11:49:42.266Z,15.73
2018-01-27T11:54:44.298Z,17.20
2018-01-27T11:59:45.275Z,17.77
2018-01-27T12:04:46.249Z,16.20
2018-01-27T12:09:47.230Z,15.20
2018-01-27T12:14:48.226Z,16.73
2018-01-27T12:19:49.201Z,16.73
2018-01-27T12:24:50.187Z,17.10
2018-01-27T12:29:51.179Z,15.27
2018-01-27T12:34:52.166Z,15.73
2018-01-27T12:39:53.130Z,16.43
2018-01-27T12:44:54.111Z,17.70
2018-01-27T12:49:55.090Z,18.67
2018-01-27T12:54:56.095Z,17.73
2018-01-27T12:59:57.055Z,17.87
2018-01-27T13:04:58.340Z,18.07
2018-01-27T13:09:59.399Z,16.70
2018-01-27T13:15:00.382Z,16.93
2018-01-27T13:20:01.380Z,16.07
2018-01-27T13:25:02.427Z,16.60
2018-01-27T13:30:03.431Z,17.40
2018-01-27T13:35:04.442Z,17.47
2018-01-27T13:40:05.424Z,17.07
2018-01-27T13:45:06.403Z,17.97
2018-01-27T13:50:07.387Z,17.20
2018-01-27T13:55:08.370Z,16.60
2018-01-27T14:00:09.340Z,17.00
2018-01-27T14:05:10.331Z,19.07
2018-01-27T14:10:11.336Z,17.27
2018-01-27T14:15:12.319Z,19.70
2018-01-27T14:20:13.323Z,19.53
2018-01-27T14:25:15.047Z,19.73
2018-01-27T14:30:16.023Z,19.60
2018-01-27T14:35:17.052Z,19.10
2018-01-27T14:40:18.044Z,18.60
2018-01-27T14:45:19.019Z,18.30
2018-01-27T14:50:20.116Z,41.33
2018-01-27T14:55:21.091Z,40.10
2018-01-27T15:00:22.079Z,21.43
2018-01-27T15:05:23.802Z,30.00
2018-01-27T15:10:25.550Z,29.30
2018-01-27T15:15:26.538Z,25.80
2018-01-27T15:20:27.546Z,39.00
2018-01-27T15:25:28.522Z,36.83
2018-01-27T15:30:29.511Z,25.70
2018-01-27T15:35:30.499Z,30.67
2018-01-27T15:40:32.222Z,37.17
2018-01-27T15:45:33.206Z,25.00
2018-01-27T15:50:34.208Z,23.43
2018-01-27T15:55:35.194Z,21.43
2018-01-27T16:00:36.183Z,22.37
2018-01-27T16:05:37.175Z,23.40
2018-01-27T16:10:38.155Z,23.70
2018-01-27T16:15:39.136Z,23.07
2018-01-27T16:20:40.111Z,24.00
2018-01-27T16:25:41.102Z,25.07
2018-01-27T16:30:42.090Z,29.93
2018-01-27T16:35:43.082Z,37.50
2018-01-27T16:40:44.079Z,27.90
2018-01-27T16:45:45.080Z,28.07
2018-01-27T16:50:46.794Z,35.13
2018-01-27T16:55:47.774Z,40.42
2018-01-27T17:00:48.828Z,27.30
2018-01-27T17:05:49.861Z,29.33
2018-01-27T17:10:50.834Z,47.63
2018-01-27T17:15:51.860Z,31.00
2018-01-27T17:20:52.883Z,36.00
2018-01-27T17:25:53.883Z,37.60
2018-01-27T17:30:54.915Z,37.77
2018-01-27T17:35:55.899Z,40.83
2018-01-27T17:40:56.891Z,37.30
2018-01-27T17:45:57.885Z,41.03
2018-01-27T17:50:58.887Z,33.47
2018-01-27T17:55:59.887Z,32.67
2018-01-27T18:01:00.884Z,32.60
2018-01-27T18:06:01.876Z,31.20
2018-01-27T18:11:02.906Z,35.83
2018-01-27T18:16:04.674Z,27.70
2018-01-27T18:21:05.663Z,30.60
2018-01-27T18:26:06.641Z,24.03
2018-01-27T18:31:07.623Z,25.40
2018-01-27T18:36:08.602Z,25.80
2018-01-27T18:41:09.586Z,24.87
2018-01-27T18:46:10.574Z,30.93
2018-01-27T18:51:11.546Z,28.17
2018-01-27T18:56:12.531Z,30.50
2018-01-27T19:01:13.519Z,29.50
2018-01-27T19:06:14.605Z,27.93
2018-01-27T19:11:15.596Z,25.40
2018-01-27T19:16:16.575Z,26.07
2018-01-27T19:21:17.558Z,46.57
2018-01-27T19:26:18.540Z,40.83
2018-01-27T19:31:19.519Z,51.33
2018-01-27T19:36:20.555Z,71.87
2018-01-27T19:41:21.522Z,28.67
2018-01-27T19:46:22.503Z,39.07
2018-01-27T19:51:23.498Z,28.13
2018-01-27T19:56:24.725Z,29.23
2018-01-27T20:01:25.819Z,31.37
2018-01-27T20:06:26.910Z,27.87
2018-01-27T20:11:27.887Z,26.80
2018-01-27T20:16:28.874Z,25.47
2018-01-27T20:21:30.652Z,30.60
2018-01-27T20:26:31.631Z,35.23
2018-01-27T20:31:32.614Z,47.63
2018-01-27T20:36:33.605Z,92.87
2018-01-27T20:41:34.584Z,73.73
2018-01-27T20:46:35.563Z,28.10
2018-01-27T20:51:36.559Z,24.63
2018-01-27T20:56:37.803Z,25.37
2018-01-27T21:01:39.222Z,27.43
2018-01-27T21:06:40.207Z,27.50
2018-01-27T21:11:41.198Z,25.07
2018-01-27T21:16:42.566Z,32.67
2018-01-27T21:21:44.523Z,38.47
2018-01-27T21:26:45.571Z,33.07
2018-01-27T21:31:46.546Z,33.57
2018-01-27T21:36:47.530Z,31.27
2018-01-27T21:41:49.050Z,30.10
2018-01-27T21:46:50.238Z,31.20
2018-01-27T21:51:51.211Z,30.40
2018-01-27T21:56:52.195Z,28.70
2018-01-27T22:01:53.430Z,32.03
2018-01-27T22:06:54.835Z,29.27
2018-01-27T22:11:56.338Z,30.87
2018-01-27T22:16:57.355Z,25.10
2018-01-27T22:21:58.485Z,32.30
2018-01-27T22:26:59.607Z,29.73
2018-01-27T22:32:00.611Z,31.23
2018-01-27T22:37:01.598Z,28.77
2018-01-27T22:42:02.719Z,30.00
2018-01-27T22:47:03.702Z,26.03
2018-01-27T22:52:04.694Z,26.50
2018-01-27T22:57:05.667Z,28.07
2018-01-27T23:02:06.643Z,25.30
2018-01-27T23:07:07.622Z,26.27
2018-01-27T23:12:09.534Z,22.07
2018-01-27T23:17:10.673Z,20.10
2018-01-27T23:22:12.032Z,20.27
2018-01-27T23:27:13.276Z,21.40
2018-01-27T23:32:14.995Z,19.83
2018-01-27T23:37:15.975Z,21.37
2018-01-27T23:42:16.952Z,21.07
2018-01-27T23:47:17.934Z,23.80
2018-01-27T23:52:18.906Z,23.50
2018-01-27T23:57:20.634Z,24.00
